CheckWX is a tool to help pilots better visualize weather data.  It is not intended as a substitute for an official pre-flight weather briefing.

14:20:48 UTC

KJBR TAF
Jonesboro Municipal Airport
Jonesboro, Arkansas, USA
KJBR 081720Z 0818/0918 18005KT P6SM SCT150 FM082100 17007KT P6SM VCTS SCT040CB SCT150 FM090000 16005KT P6SM SCT150 FM090800 14001KT 6SM BR BKN250 FM091300 25005KT P6SM SCT030 AMD NOT SKED

Jul-8@
18:00 UTC

Jul-8 @ 18:00 UTC

Jul-8@
21:00 UTC

Jul-8 @ 21:00 UTC

TAF KJBR 081720Z 0818/0918 18005KT P6SM SCT150

Expired

Wind
  • 180° at 5 KTS
Cloud Levels
  • Scattered at 15,000' AGL

Jul-8@
21:00 UTC

Jul-8 @ 21:00 UTC

Jul-9@
00:00 UTC

Jul-9 @ 00:00 UTC

FM082100 17007KT P6SM VCTS SCT040CB SCT150

Expired

Wind
  • 170° at 7 KTS
Conditions
Area Thunderstorm
Cloud Levels
  • Scattered at 4,000' AGL
  • Scattered at 15,000' AGL

Jul-9@
00:00 UTC

Jul-9 @ 00:00 UTC

Jul-9@
08:00 UTC

Jul-9 @ 08:00 UTC

FM090000 16005KT P6SM SCT150

Expired

Wind
  • 160° at 5 KTS
Cloud Levels
  • Scattered at 15,000' AGL

Jul-9@
08:00 UTC

Jul-9 @ 08:00 UTC

Jul-9@
13:00 UTC

Jul-9 @ 13:00 UTC

FM090800 14001KT 6SM BR BKN250

Expired

Wind
  • 140° at 1 KTS
Conditions
Mist
Cloud Levels
  • Broken at 25,000' AGL

Jul-9@
13:00 UTC

Jul-9 @ 13:00 UTC

Jul-9@
18:00 UTC

Jul-9 @ 18:00 UTC

FM091300 25005KT P6SM SCT030 AMD NOT SKED

From

From Standard forecast or significant change

Wind
  • 250° at 5 KTS
Cloud Levels
  • Scattered at 3,000' AGL